sensor_id;sensor_type;location;lat;lon;timestamp;P1;durP1;ratioP1;P2;durP2;ratioP2
15238;SDS011;7722;53.274;9.500;2023-03-15T00:01:57;1.70;;;1.70;;
15238;SDS011;7722;53.274;9.500;2023-03-15T00:04:24;1.53;;;1.53;;
15238;SDS011;7722;53.274;9.500;2023-03-15T00:06:51;1.37;;;1.37;;
15238;SDS011;7722;53.274;9.500;2023-03-15T00:09:20;1.70;;;1.70;;
15238;SDS011;7722;53.274;9.500;2023-03-15T00:11:48;1.40;;;1.40;;
15238;SDS011;7722;53.274;9.500;2023-03-15T00:14:15;1.50;;;1.50;;
15238;SDS011;7722;53.274;9.500;2023-03-15T00:16:43;1.67;;;1.67;;
15238;SDS011;7722;53.274;9.500;2023-03-15T00:19:10;1.30;;;1.30;;
15238;SDS011;7722;53.274;9.500;2023-03-15T00:21:37;1.60;;;1.60;;
15238;SDS011;7722;53.274;9.500;2023-03-15T00:24:07;1.57;;;1.57;;
15238;SDS011;7722;53.274;9.500;2023-03-15T00:26:36;1.40;;;1.40;;
15238;SDS011;7722;53.274;9.500;2023-03-15T00:29:04;1.40;;;1.40;;
15238;SDS011;7722;53.274;9.500;2023-03-15T00:31:31;1.43;;;1.43;;
15238;SDS011;7722;53.274;9.500;2023-03-15T00:33:59;3.30;;;3.20;;
15238;SDS011;7722;53.274;9.500;2023-03-15T00:36:26;1.30;;;1.30;;
15238;SDS011;7722;53.274;9.500;2023-03-15T00:38:54;1.53;;;1.53;;
15238;SDS011;7722;53.274;9.500;2023-03-15T00:41:22;1.43;;;1.43;;
15238;SDS011;7722;53.274;9.500;2023-03-15T00:43:51;1.70;;;1.70;;
15238;SDS011;7722;53.274;9.500;2023-03-15T00:46:18;1.60;;;1.60;;
15238;SDS011;7722;53.274;9.500;2023-03-15T00:48:48;1.37;;;1.37;;
15238;SDS011;7722;53.274;9.500;2023-03-15T00:51:16;1.60;;;1.60;;
15238;SDS011;7722;53.274;9.500;2023-03-15T00:53:45;1.30;;;1.30;;
15238;SDS011;7722;53.274;9.500;2023-03-15T00:56:14;1.60;;;1.60;;
15238;SDS011;7722;53.274;9.500;2023-03-15T00:58:42;1.60;;;1.60;;
15238;SDS011;7722;53.274;9.500;2023-03-15T01:01:11;1.37;;;1.37;;
15238;SDS011;7722;53.274;9.500;2023-03-15T01:03:40;1.00;;;1.00;;
15238;SDS011;7722;53.274;9.500;2023-03-15T01:06:08;1.50;;;1.50;;
15238;SDS011;7722;53.274;9.500;2023-03-15T01:08:38;1.40;;;1.40;;
15238;SDS011;7722;53.274;9.500;2023-03-15T01:11:06;1.30;;;1.30;;
15238;SDS011;7722;53.274;9.500;2023-03-15T01:13:36;1.67;;;1.67;;
15238;SDS011;7722;53.274;9.500;2023-03-15T01:16:04;1.50;;;1.50;;
15238;SDS011;7722;53.274;9.500;2023-03-15T01:18:33;1.30;;;1.30;;
15238;SDS011;7722;53.274;9.500;2023-03-15T01:21:01;1.40;;;1.40;;
15238;SDS011;7722;53.274;9.500;2023-03-15T01:23:28;1.57;;;1.57;;
15238;SDS011;7722;53.274;9.500;2023-03-15T01:25:58;1.40;;;1.40;;
15238;SDS011;7722;53.274;9.500;2023-03-15T01:28:25;1.40;;;1.40;;
15238;SDS011;7722;53.274;9.500;2023-03-15T01:30:52;1.30;;;1.30;;
15238;SDS011;7722;53.274;9.500;2023-03-15T01:33:20;1.50;;;1.50;;
15238;SDS011;7722;53.274;9.500;2023-03-15T01:35:48;1.30;;;1.30;;
15238;SDS011;7722;53.274;9.500;2023-03-15T01:38:23;1.30;;;1.30;;
15238;SDS011;7722;53.274;9.500;2023-03-15T01:40:50;1.40;;;1.40;;
15238;SDS011;7722;53.274;9.500;2023-03-15T01:43:18;1.37;;;1.37;;
15238;SDS011;7722;53.274;9.500;2023-03-15T01:45:52;1.40;;;1.40;;
15238;SDS011;7722;53.274;9.500;2023-03-15T01:48:26;1.37;;;1.37;;
15238;SDS011;7722;53.274;9.500;2023-03-15T01:50:57;1.70;;;1.70;;
15238;SDS011;7722;53.274;9.500;2023-03-15T01:53:26;1.60;;;1.60;;
15238;SDS011;7722;53.274;9.500;2023-03-15T01:55:55;2.33;;;2.33;;
15238;SDS011;7722;53.274;9.500;2023-03-15T01:58:23;1.50;;;1.50;;
15238;SDS011;7722;53.274;9.500;2023-03-15T02:00:52;1.30;;;1.30;;
15238;SDS011;7722;53.274;9.500;2023-03-15T02:03:20;1.60;;;1.60;;
15238;SDS011;7722;53.274;9.500;2023-03-15T02:05:50;1.30;;;1.30;;
15238;SDS011;7722;53.274;9.500;2023-03-15T02:08:22;1.53;;;1.53;;
15238;SDS011;7722;53.274;9.500;2023-03-15T02:10:52;1.33;;;1.33;;
15238;SDS011;7722;53.274;9.500;2023-03-15T02:13:22;1.47;;;1.47;;
15238;SDS011;7722;53.274;9.500;2023-03-15T02:15:51;1.40;;;1.40;;
15238;SDS011;7722;53.274;9.500;2023-03-15T02:18:20;1.50;;;1.50;;
15238;SDS011;7722;53.274;9.500;2023-03-15T02:20:48;1.60;;;1.60;;
15238;SDS011;7722;53.274;9.500;2023-03-15T02:23:25;1.40;;;1.40;;
15238;SDS011;7722;53.274;9.500;2023-03-15T02:25:55;1.30;;;1.30;;
15238;SDS011;7722;53.274;9.500;2023-03-15T02:28:30;1.60;;;1.60;;
15238;SDS011;7722;53.274;9.500;2023-03-15T02:30:58;1.60;;;1.60;;
15238;SDS011;7722;53.274;9.500;2023-03-15T02:33:26;1.40;;;1.40;;
15238;SDS011;7722;53.274;9.500;2023-03-15T02:36:05;1.47;;;1.47;;
15238;SDS011;7722;53.274;9.500;2023-03-15T02:38:33;1.40;;;1.40;;
15238;SDS011;7722;53.274;9.500;2023-03-15T02:41:00;1.43;;;1.43;;
15238;SDS011;7722;53.274;9.500;2023-03-15T02:43:28;1.50;;;1.50;;
15238;SDS011;7722;53.274;9.500;2023-03-15T02:45:58;1.70;;;1.70;;
15238;SDS011;7722;53.274;9.500;2023-03-15T02:48:26;1.50;;;1.50;;
15238;SDS011;7722;53.274;9.500;2023-03-15T02:50:54;1.40;;;1.40;;
15238;SDS011;7722;53.274;9.500;2023-03-15T02:53:21;1.30;;;1.30;;
15238;SDS011;7722;53.274;9.500;2023-03-15T02:55:48;1.40;;;1.40;;
15238;SDS011;7722;53.274;9.500;2023-03-15T02:58:15;1.40;;;1.40;;
15238;SDS011;7722;53.274;9.500;2023-03-15T03:00:44;1.60;;;1.60;;
15238;SDS011;7722;53.274;9.500;2023-03-15T03:03:11;1.57;;;1.57;;
15238;SDS011;7722;53.274;9.500;2023-03-15T03:05:39;1.57;;;1.57;;
15238;SDS011;7722;53.274;9.500;2023-03-15T03:08:06;1.30;;;1.30;;
15238;SDS011;7722;53.274;9.500;2023-03-15T03:10:32;1.57;;;1.57;;
15238;SDS011;7722;53.274;9.500;2023-03-15T03:13:00;1.67;;;1.67;;
15238;SDS011;7722;53.274;9.500;2023-03-15T03:15:27;2.27;;;2.27;;
15238;SDS011;7722;53.274;9.500;2023-03-15T03:17:55;1.43;;;1.43;;
15238;SDS011;7722;53.274;9.500;2023-03-15T03:20:22;1.70;;;1.70;;
15238;SDS011;7722;53.274;9.500;2023-03-15T03:22:49;1.30;;;1.30;;
15238;SDS011;7722;53.274;9.500;2023-03-15T03:25:20;1.57;;;1.57;;
15238;SDS011;7722;53.274;9.500;2023-03-15T03:27:51;1.80;;;1.80;;
15238;SDS011;7722;53.274;9.500;2023-03-15T03:30:21;1.90;;;1.90;;
15238;SDS011;7722;53.274;9.500;2023-03-15T03:32:48;1.50;;;1.50;;
15238;SDS011;7722;53.274;9.500;2023-03-15T03:35:18;1.40;;;1.40;;
15238;SDS011;7722;53.274;9.500;2023-03-15T03:37:45;1.70;;;1.70;;
15238;SDS011;7722;53.274;9.500;2023-03-15T03:40:12;1.90;;;1.90;;
15238;SDS011;7722;53.274;9.500;2023-03-15T03:42:39;1.60;;;1.60;;
15238;SDS011;7722;53.274;9.500;2023-03-15T03:45:07;1.77;;;1.77;;
15238;SDS011;7722;53.274;9.500;2023-03-15T03:47:35;2.03;;;2.03;;
15238;SDS011;7722;53.274;9.500;2023-03-15T03:50:02;1.70;;;1.70;;
15238;SDS011;7722;53.274;9.500;2023-03-15T03:52:31;1.57;;;1.57;;
15238;SDS011;7722;53.274;9.500;2023-03-15T03:54:58;1.60;;;1.60;;
15238;SDS011;7722;53.274;9.500;2023-03-15T03:57:25;1.60;;;1.60;;
15238;SDS011;7722;53.274;9.500;2023-03-15T03:59:54;1.50;;;1.50;;
15238;SDS011;7722;53.274;9.500;2023-03-15T04:02:22;1.70;;;1.70;;
15238;SDS011;7722;53.274;9.500;2023-03-15T04:04:49;1.60;;;1.60;;
15238;SDS011;7722;53.274;9.500;2023-03-15T04:07:16;1.30;;;1.30;;
15238;SDS011;7722;53.274;9.500;2023-03-15T04:09:45;1.60;;;1.60;;
15238;SDS011;7722;53.274;9.500;2023-03-15T04:12:12;1.20;;;1.20;;
15238;SDS011;7722;53.274;9.500;2023-03-15T04:14:40;1.60;;;1.60;;
15238;SDS011;7722;53.274;9.500;2023-03-15T04:17:07;1.70;;;1.70;;
15238;SDS011;7722;53.274;9.500;2023-03-15T04:19:34;1.60;;;1.60;;
15238;SDS011;7722;53.274;9.500;2023-03-15T04:22:01;1.40;;;1.40;;
15238;SDS011;7722;53.274;9.500;2023-03-15T04:24:31;1.60;;;1.60;;
15238;SDS011;7722;53.274;9.500;2023-03-15T04:27:00;1.67;;;1.67;;
15238;SDS011;7722;53.274;9.500;2023-03-15T04:29:28;1.40;;;1.40;;
15238;SDS011;7722;53.274;9.500;2023-03-15T04:31:55;1.60;;;1.60;;
15238;SDS011;7722;53.274;9.500;2023-03-15T04:34:26;1.33;;;1.33;;
15238;SDS011;7722;53.274;9.500;2023-03-15T04:36:53;1.50;;;1.50;;
15238;SDS011;7722;53.274;9.500;2023-03-15T04:39:21;1.57;;;1.57;;
15238;SDS011;7722;53.274;9.500;2023-03-15T04:41:49;1.50;;;1.50;;
15238;SDS011;7722;53.274;9.500;2023-03-15T04:44:20;1.30;;;1.30;;
15238;SDS011;7722;53.274;9.500;2023-03-15T04:46:50;1.80;;;1.80;;
15238;SDS011;7722;53.274;9.500;2023-03-15T04:49:18;1.37;;;1.37;;
15238;SDS011;7722;53.274;9.500;2023-03-15T04:51:45;1.70;;;1.70;;
15238;SDS011;7722;53.274;9.500;2023-03-15T04:54:15;4.83;;;4.53;;
15238;SDS011;7722;53.274;9.500;2023-03-15T04:56:42;1.63;;;1.63;;
15238;SDS011;7722;53.274;9.500;2023-03-15T04:59:10;1.40;;;1.40;;
15238;SDS011;7722;53.274;9.500;2023-03-15T05:01:38;1.57;;;1.57;;
15238;SDS011;7722;53.274;9.500;2023-03-15T05:06:16;1.60;;;1.60;;
15238;SDS011;7722;53.274;9.500;2023-03-15T05:11:25;1.57;;;1.57;;
15238;SDS011;7722;53.274;9.500;2023-03-15T05:14:29;1.40;;;1.40;;
15238;SDS011;7722;53.274;9.500;2023-03-15T05:17:15;1.67;;;1.67;;
15238;SDS011;7722;53.274;9.500;2023-03-15T05:19:42;1.30;;;1.30;;
15238;SDS011;7722;53.274;9.500;2023-03-15T05:22:10;1.60;;;1.60;;
15238;SDS011;7722;53.274;9.500;2023-03-15T05:24:38;1.60;;;1.60;;
15238;SDS011;7722;53.274;9.500;2023-03-15T05:27:05;1.40;;;1.40;;
15238;SDS011;7722;53.274;9.500;2023-03-15T05:29:32;1.60;;;1.60;;
15238;SDS011;7722;53.274;9.500;2023-03-15T05:31:59;1.27;;;1.27;;
15238;SDS011;7722;53.274;9.500;2023-03-15T05:34:30;1.73;;;1.73;;
15238;SDS011;7722;53.274;9.500;2023-03-15T05:36:57;1.77;;;1.77;;
15238;SDS011;7722;53.274;9.500;2023-03-15T05:39:24;1.40;;;1.40;;
15238;SDS011;7722;53.274;9.500;2023-03-15T05:41:52;1.50;;;1.50;;
15238;SDS011;7722;53.274;9.500;2023-03-15T05:44:19;1.70;;;1.70;;
15238;SDS011;7722;53.274;9.500;2023-03-15T05:46:47;1.47;;;1.47;;
15238;SDS011;7722;53.274;9.500;2023-03-15T05:49:15;1.40;;;1.40;;
15238;SDS011;7722;53.274;9.500;2023-03-15T05:51:44;1.33;;;1.33;;
15238;SDS011;7722;53.274;9.500;2023-03-15T05:54:11;1.47;;;1.47;;
15238;SDS011;7722;53.274;9.500;2023-03-15T05:56:40;1.60;;;1.60;;
15238;SDS011;7722;53.274;9.500;2023-03-15T05:59:09;1.50;;;1.50;;
15238;SDS011;7722;53.274;9.500;2023-03-15T06:01:44;1.60;;;1.60;;
15238;SDS011;7722;53.274;9.500;2023-03-15T06:04:12;1.50;;;1.50;;
15238;SDS011;7722;53.274;9.500;2023-03-15T06:06:41;1.53;;;1.53;;
15238;SDS011;7722;53.274;9.500;2023-03-15T06:09:09;1.77;;;1.77;;
15238;SDS011;7722;53.274;9.500;2023-03-15T06:11:36;1.60;;;1.60;;
15238;SDS011;7722;53.274;9.500;2023-03-15T06:14:04;1.47;;;1.47;;
15238;SDS011;7722;53.274;9.500;2023-03-15T06:16:31;1.50;;;1.50;;
15238;SDS011;7722;53.274;9.500;2023-03-15T06:18:58;1.63;;;1.63;;
15238;SDS011;7722;53.274;9.500;2023-03-15T06:21:25;1.50;;;1.50;;
15238;SDS011;7722;53.274;9.500;2023-03-15T06:23:53;1.70;;;1.70;;
15238;SDS011;7722;53.274;9.500;2023-03-15T06:26:21;1.50;;;1.50;;
15238;SDS011;7722;53.274;9.500;2023-03-15T06:28:48;1.40;;;1.40;;
15238;SDS011;7722;53.274;9.500;2023-03-15T06:31:15;1.60;;;1.60;;
15238;SDS011;7722;53.274;9.500;2023-03-15T06:33:42;1.30;;;1.30;;
15238;SDS011;7722;53.274;9.500;2023-03-15T06:36:10;1.20;;;1.20;;
15238;SDS011;7722;53.274;9.500;2023-03-15T06:38:38;1.40;;;1.40;;
15238;SDS011;7722;53.274;9.500;2023-03-15T06:47:20;1.00;;;1.00;;
15238;SDS011;7722;53.274;9.500;2023-03-15T06:49:47;1.30;;;1.30;;
15238;SDS011;7722;53.274;9.500;2023-03-15T06:52:34;1.43;;;1.43;;
15238;SDS011;7722;53.274;9.500;2023-03-15T06:55:09;1.67;;;1.67;;
15238;SDS011;7722;53.274;9.500;2023-03-15T06:57:41;1.70;;;1.70;;
15238;SDS011;7722;53.274;9.500;2023-03-15T07:00:10;1.50;;;1.50;;
15238;SDS011;7722;53.274;9.500;2023-03-15T07:02:38;1.47;;;1.47;;
15238;SDS011;7722;53.274;9.500;2023-03-15T07:05:06;1.63;;;1.63;;
15238;SDS011;7722;53.274;9.500;2023-03-15T07:07:34;2.00;;;2.00;;
15238;SDS011;7722;53.274;9.500;2023-03-15T07:10:01;1.70;;;1.70;;
15238;SDS011;7722;53.274;9.500;2023-03-15T07:12:28;1.53;;;1.53;;
15238;SDS011;7722;53.274;9.500;2023-03-15T07:14:56;1.60;;;1.60;;
15238;SDS011;7722;53.274;9.500;2023-03-15T07:17:24;1.40;;;1.40;;
15238;SDS011;7722;53.274;9.500;2023-03-15T07:19:51;1.30;;;1.30;;
15238;SDS011;7722;53.274;9.500;2023-03-15T07:22:18;1.43;;;1.43;;
15238;SDS011;7722;53.274;9.500;2023-03-15T07:24:46;1.30;;;1.30;;
15238;SDS011;7722;53.274;9.500;2023-03-15T07:27:13;1.40;;;1.40;;
15238;SDS011;7722;53.274;9.500;2023-03-15T07:29:41;1.13;;;1.13;;
15238;SDS011;7722;53.274;9.500;2023-03-15T07:32:08;1.50;;;1.50;;
15238;SDS011;7722;53.274;9.500;2023-03-15T07:34:37;1.40;;;1.40;;
15238;SDS011;7722;53.274;9.500;2023-03-15T07:37:04;1.37;;;1.37;;
15238;SDS011;7722;53.274;9.500;2023-03-15T07:39:31;1.20;;;1.20;;
15238;SDS011;7722;53.274;9.500;2023-03-15T07:41:58;2.10;;;2.10;;
15238;SDS011;7722;53.274;9.500;2023-03-15T07:44:26;4.00;;;3.80;;
15238;SDS011;7722;53.274;9.500;2023-03-15T07:46:53;1.67;;;1.67;;
15238;SDS011;7722;53.274;9.500;2023-03-15T07:49:20;1.43;;;1.43;;
15238;SDS011;7722;53.274;9.500;2023-03-15T07:51:49;1.53;;;1.53;;
15238;SDS011;7722;53.274;9.500;2023-03-15T07:54:16;1.33;;;1.33;;
15238;SDS011;7722;53.274;9.500;2023-03-15T07:56:44;1.50;;;1.50;;
15238;SDS011;7722;53.274;9.500;2023-03-15T07:59:11;1.20;;;1.20;;
15238;SDS011;7722;53.274;9.500;2023-03-15T08:01:38;1.30;;;1.30;;
15238;SDS011;7722;53.274;9.500;2023-03-15T08:04:05;1.50;;;1.50;;
15238;SDS011;7722;53.274;9.500;2023-03-15T08:06:32;1.20;;;1.20;;
15238;SDS011;7722;53.274;9.500;2023-03-15T08:09:01;1.20;;;1.20;;
15238;SDS011;7722;53.274;9.500;2023-03-15T08:11:29;1.10;;;1.10;;
15238;SDS011;7722;53.274;9.500;2023-03-15T08:13:57;1.10;;;1.10;;
15238;SDS011;7722;53.274;9.500;2023-03-15T08:16:24;1.10;;;1.10;;
15238;SDS011;7722;53.274;9.500;2023-03-15T08:18:51;1.40;;;1.40;;
15238;SDS011;7722;53.274;9.500;2023-03-15T08:21:18;1.10;;;1.10;;
15238;SDS011;7722;53.274;9.500;2023-03-15T08:23:45;1.60;;;1.60;;
15238;SDS011;7722;53.274;9.500;2023-03-15T08:26:14;1.20;;;1.20;;
15238;SDS011;7722;53.274;9.500;2023-03-15T08:28:41;1.77;;;1.77;;
15238;SDS011;7722;53.274;9.500;2023-03-15T08:31:08;1.10;;;1.10;;
15238;SDS011;7722;53.274;9.500;2023-03-15T08:33:37;1.10;;;1.10;;
15238;SDS011;7722;53.274;9.500;2023-03-15T08:36:05;1.10;;;1.10;;
15238;SDS011;7722;53.274;9.500;2023-03-15T08:38:32;1.50;;;1.50;;
15238;SDS011;7722;53.274;9.500;2023-03-15T08:40:59;1.20;;;1.20;;
15238;SDS011;7722;53.274;9.500;2023-03-15T08:43:29;1.37;;;1.37;;
15238;SDS011;7722;53.274;9.500;2023-03-15T08:45:56;1.90;;;1.90;;
15238;SDS011;7722;53.274;9.500;2023-03-15T08:48:23;1.30;;;1.30;;
15238;SDS011;7722;53.274;9.500;2023-03-15T08:50:50;1.17;;;1.17;;
15238;SDS011;7722;53.274;9.500;2023-03-15T08:53:17;1.10;;;1.10;;
15238;SDS011;7722;53.274;9.500;2023-03-15T08:55:45;1.00;;;1.00;;
15238;SDS011;7722;53.274;9.500;2023-03-15T08:58:13;0.80;;;0.80;;
15238;SDS011;7722;53.274;9.500;2023-03-15T09:00:42;1.30;;;1.30;;
15238;SDS011;7722;53.274;9.500;2023-03-15T09:03:09;1.10;;;1.10;;
15238;SDS011;7722;53.274;9.500;2023-03-15T09:05:36;1.10;;;1.10;;
15238;SDS011;7722;53.274;9.500;2023-03-15T09:08:04;1.20;;;1.20;;
15238;SDS011;7722;53.274;9.500;2023-03-15T09:10:31;0.90;;;0.90;;
15238;SDS011;7722;53.274;9.500;2023-03-15T09:12:59;0.90;;;0.90;;
15238;SDS011;7722;53.274;9.500;2023-03-15T09:15:26;1.00;;;1.00;;
15238;SDS011;7722;53.274;9.500;2023-03-15T09:17:54;0.90;;;0.90;;
15238;SDS011;7722;53.274;9.500;2023-03-15T09:20:21;0.90;;;0.90;;
15238;SDS011;7722;53.274;9.500;2023-03-15T09:22:53;0.90;;;0.90;;
15238;SDS011;7722;53.274;9.500;2023-03-15T09:25:21;1.30;;;1.30;;
15238;SDS011;7722;53.274;9.500;2023-03-15T09:27:50;0.80;;;0.80;;
15238;SDS011;7722;53.274;9.500;2023-03-15T09:30:18;0.90;;;0.90;;
15238;SDS011;7722;53.274;9.500;2023-03-15T09:32:45;0.83;;;0.83;;
15238;SDS011;7722;53.274;9.500;2023-03-15T09:35:18;1.10;;;1.10;;
15238;SDS011;7722;53.274;9.500;2023-03-15T09:37:46;1.00;;;1.00;;
15238;SDS011;7722;53.274;9.500;2023-03-15T09:40:15;1.23;;;1.23;;
15238;SDS011;7722;53.274;9.500;2023-03-15T09:42:52;1.07;;;1.07;;
15238;SDS011;7722;53.274;9.500;2023-03-15T09:45:29;0.90;;;0.90;;
15238;SDS011;7722;53.274;9.500;2023-03-15T09:48:07;0.80;;;0.80;;
15238;SDS011;7722;53.274;9.500;2023-03-15T09:50:39;0.93;;;0.93;;
15238;SDS011;7722;53.274;9.500;2023-03-15T09:53:11;0.90;;;0.90;;
15238;SDS011;7722;53.274;9.500;2023-03-15T09:55:42;0.80;;;0.80;;
15238;SDS011;7722;53.274;9.500;2023-03-15T09:58:13;1.10;;;1.10;;
15238;SDS011;7722;53.274;9.500;2023-03-15T10:00:43;0.80;;;0.80;;
15238;SDS011;7722;53.274;9.500;2023-03-15T10:03:15;0.90;;;0.90;;
15238;SDS011;7722;53.274;9.500;2023-03-15T10:05:48;0.90;;;0.90;;
15238;SDS011;7722;53.274;9.500;2023-03-15T10:08:19;0.80;;;0.80;;
15238;SDS011;7722;53.274;9.500;2023-03-15T10:10:48;0.70;;;0.70;;
15238;SDS011;7722;53.274;9.500;2023-03-15T10:13:24;0.70;;;0.70;;
15238;SDS011;7722;53.274;9.500;2023-03-15T10:16:10;0.90;;;0.90;;
15238;SDS011;7722;53.274;9.500;2023-03-15T10:18:51;1.27;;;1.27;;
15238;SDS011;7722;53.274;9.500;2023-03-15T10:21:29;1.17;;;1.17;;
15238;SDS011;7722;53.274;9.500;2023-03-15T10:24:03;1.07;;;1.07;;
15238;SDS011;7722;53.274;9.500;2023-03-15T10:26:34;1.20;;;1.20;;
15238;SDS011;7722;53.274;9.500;2023-03-15T10:29:07;1.20;;;1.20;;
15238;SDS011;7722;53.274;9.500;2023-03-15T10:31:40;1.40;;;1.40;;
15238;SDS011;7722;53.274;9.500;2023-03-15T10:34:10;1.30;;;1.30;;
15238;SDS011;7722;53.274;9.500;2023-03-15T10:36:44;1.40;;;1.40;;
15238;SDS011;7722;53.274;9.500;2023-03-15T10:39:13;1.20;;;1.20;;
15238;SDS011;7722;53.274;9.500;2023-03-15T10:41:41;1.57;;;1.57;;
15238;SDS011;7722;53.274;9.500;2023-03-15T10:44:11;1.13;;;1.13;;
15238;SDS011;7722;53.274;9.500;2023-03-15T10:46:40;1.20;;;1.20;;
15238;SDS011;7722;53.274;9.500;2023-03-15T10:49:08;1.20;;;1.20;;
15238;SDS011;7722;53.274;9.500;2023-03-15T10:51:38;1.50;;;1.50;;
15238;SDS011;7722;53.274;9.500;2023-03-15T10:54:12;1.00;;;1.00;;
15238;SDS011;7722;53.274;9.500;2023-03-15T10:56:43;1.00;;;1.00;;
15238;SDS011;7722;53.274;9.500;2023-03-15T10:59:14;1.30;;;1.30;;
15238;SDS011;7722;53.274;9.500;2023-03-15T11:01:44;1.00;;;1.00;;
15238;SDS011;7722;53.274;9.500;2023-03-15T11:04:14;0.90;;;0.90;;
15238;SDS011;7722;53.274;9.500;2023-03-15T11:06:44;1.20;;;1.20;;
15238;SDS011;7722;53.274;9.500;2023-03-15T11:09:15;1.20;;;1.20;;
15238;SDS011;7722;53.274;9.500;2023-03-15T11:11:50;1.10;;;1.10;;
15238;SDS011;7722;53.274;9.500;2023-03-15T11:14:19;0.90;;;0.90;;
15238;SDS011;7722;53.274;9.500;2023-03-15T11:16:48;1.07;;;1.07;;
15238;SDS011;7722;53.274;9.500;2023-03-15T11:19:17;0.90;;;0.90;;
15238;SDS011;7722;53.274;9.500;2023-03-15T11:21:47;0.90;;;0.90;;
15238;SDS011;7722;53.274;9.500;2023-03-15T11:24:25;1.20;;;1.20;;
15238;SDS011;7722;53.274;9.500;2023-03-15T11:26:54;1.33;;;1.33;;
15238;SDS011;7722;53.274;9.500;2023-03-15T11:29:26;0.80;;;0.80;;
15238;SDS011;7722;53.274;9.500;2023-03-15T11:31:55;0.77;;;0.77;;
15238;SDS011;7722;53.274;9.500;2023-03-15T11:34:34;0.90;;;0.90;;
15238;SDS011;7722;53.274;9.500;2023-03-15T11:37:05;1.03;;;1.03;;
15238;SDS011;7722;53.274;9.500;2023-03-15T11:39:42;1.20;;;1.20;;
15238;SDS011;7722;53.274;9.500;2023-03-15T11:42:15;1.27;;;1.27;;
15238;SDS011;7722;53.274;9.500;2023-03-15T11:44:48;0.90;;;0.90;;
15238;SDS011;7722;53.274;9.500;2023-03-15T11:47:22;0.80;;;0.80;;
15238;SDS011;7722;53.274;9.500;2023-03-15T11:49:56;0.90;;;0.90;;
15238;SDS011;7722;53.274;9.500;2023-03-15T11:52:24;0.67;;;0.67;;
15238;SDS011;7722;53.274;9.500;2023-03-15T11:54:55;0.83;;;0.83;;
15238;SDS011;7722;53.274;9.500;2023-03-15T11:57:37;0.90;;;0.90;;
15238;SDS011;7722;53.274;9.500;2023-03-15T12:00:14;0.80;;;0.80;;
15238;SDS011;7722;53.274;9.500;2023-03-15T12:02:59;0.90;;;0.90;;
15238;SDS011;7722;53.274;9.500;2023-03-15T12:05:48;0.90;;;0.90;;
15238;SDS011;7722;53.274;9.500;2023-03-15T12:08:18;0.80;;;0.80;;
15238;SDS011;7722;53.274;9.500;2023-03-15T12:10:50;0.90;;;0.90;;
15238;SDS011;7722;53.274;9.500;2023-03-15T12:13:19;1.00;;;1.00;;
15238;SDS011;7722;53.274;9.500;2023-03-15T12:15:50;0.87;;;0.87;;
15238;SDS011;7722;53.274;9.500;2023-03-15T12:18:19;0.70;;;0.70;;
15238;SDS011;7722;53.274;9.500;2023-03-15T12:21:09;0.90;;;0.90;;
15238;SDS011;7722;53.274;9.500;2023-03-15T12:23:57;0.80;;;0.80;;
15238;SDS011;7722;53.274;9.500;2023-03-15T12:26:42;1.00;;;1.00;;
15238;SDS011;7722;53.274;9.500;2023-03-15T12:29:12;0.90;;;0.90;;
15238;SDS011;7722;53.274;9.500;2023-03-15T12:34:45;0.70;;;0.70;;
15238;SDS011;7722;53.274;9.500;2023-03-15T12:37:15;0.70;;;0.70;;
15238;SDS011;7722;53.274;9.500;2023-03-15T12:39:47;0.70;;;0.70;;
15238;SDS011;7722;53.274;9.500;2023-03-15T12:45:42;0.80;;;0.80;;
15238;SDS011;7722;53.274;9.500;2023-03-15T12:48:18;0.77;;;0.77;;
15238;SDS011;7722;53.274;9.500;2023-03-15T12:50:59;0.80;;;0.80;;
15238;SDS011;7722;53.274;9.500;2023-03-15T12:53:35;0.50;;;0.50;;
15238;SDS011;7722;53.274;9.500;2023-03-15T12:56:18;0.50;;;0.50;;
15238;SDS011;7722;53.274;9.500;2023-03-15T12:59:02;0.50;;;0.50;;
15238;SDS011;7722;53.274;9.500;2023-03-15T13:01:55;0.60;;;0.60;;
15238;SDS011;7722;53.274;9.500;2023-03-15T13:04:25;0.67;;;0.67;;
15238;SDS011;7722;53.274;9.500;2023-03-15T13:12:50;0.50;;;0.50;;
15238;SDS011;7722;53.274;9.500;2023-03-15T13:15:24;0.50;;;0.50;;
15238;SDS011;7722;53.274;9.500;2023-03-15T13:18:02;0.50;;;0.50;;
15238;SDS011;7722;53.274;9.500;2023-03-15T13:20:37;0.60;;;0.60;;
15238;SDS011;7722;53.274;9.500;2023-03-15T13:23:12;0.40;;;0.40;;
15238;SDS011;7722;53.274;9.500;2023-03-15T13:25:45;0.50;;;0.50;;
15238;SDS011;7722;53.274;9.500;2023-03-15T13:28:21;0.40;;;0.40;;
15238;SDS011;7722;53.274;9.500;2023-03-15T13:30:50;0.50;;;0.50;;
15238;SDS011;7722;53.274;9.500;2023-03-15T13:33:21;0.40;;;0.40;;
15238;SDS011;7722;53.274;9.500;2023-03-15T13:35:53;0.32;;;0.32;;
15238;SDS011;7722;53.274;9.500;2023-03-15T13:38:23;0.40;;;0.40;;
15238;SDS011;7722;53.274;9.500;2023-03-15T13:40:53;0.25;;;0.25;;
15238;SDS011;7722;53.274;9.500;2023-03-15T13:43:25;0.40;;;0.40;;
15238;SDS011;7722;53.274;9.500;2023-03-15T13:45:55;0.30;;;0.30;;
15238;SDS011;7722;53.274;9.500;2023-03-15T13:48:26;0.40;;;0.40;;
15238;SDS011;7722;53.274;9.500;2023-03-15T13:50:55;0.40;;;0.40;;
15238;SDS011;7722;53.274;9.500;2023-03-15T13:53:28;0.65;;;0.65;;
15238;SDS011;7722;53.274;9.500;2023-03-15T13:55:58;0.52;;;0.52;;
15238;SDS011;7722;53.274;9.500;2023-03-15T13:58:26;0.60;;;0.60;;
15238;SDS011;7722;53.274;9.500;2023-03-15T14:00:54;0.40;;;0.40;;
15238;SDS011;7722;53.274;9.500;2023-03-15T14:03:24;0.50;;;0.50;;
15238;SDS011;7722;53.274;9.500;2023-03-15T14:05:54;0.50;;;0.50;;
15238;SDS011;7722;53.274;9.500;2023-03-15T14:08:23;0.70;;;0.70;;
15238;SDS011;7722;53.274;9.500;2023-03-15T14:11:00;0.50;;;0.50;;
15238;SDS011;7722;53.274;9.500;2023-03-15T14:13:30;0.57;;;0.57;;
15238;SDS011;7722;53.274;9.500;2023-03-15T14:15:59;0.60;;;0.60;;
15238;SDS011;7722;53.274;9.500;2023-03-15T14:18:31;0.50;;;0.50;;
15238;SDS011;7722;53.274;9.500;2023-03-15T14:21:00;0.32;;;0.32;;
15238;SDS011;7722;53.274;9.500;2023-03-15T14:23:31;0.47;;;0.47;;
15238;SDS011;7722;53.274;9.500;2023-03-15T14:26:05;0.60;;;0.60;;
15238;SDS011;7722;53.274;9.500;2023-03-15T14:28:37;0.40;;;0.40;;
15238;SDS011;7722;53.274;9.500;2023-03-15T14:31:05;0.50;;;0.50;;
15238;SDS011;7722;53.274;9.500;2023-03-15T14:33:35;0.50;;;0.50;;
15238;SDS011;7722;53.274;9.500;2023-03-15T14:36:06;0.60;;;0.60;;
15238;SDS011;7722;53.274;9.500;2023-03-15T14:38:35;0.30;;;0.30;;
15238;SDS011;7722;53.274;9.500;2023-03-15T14:41:16;0.70;;;0.70;;
15238;SDS011;7722;53.274;9.500;2023-03-15T14:43:47;0.50;;;0.50;;
15238;SDS011;7722;53.274;9.500;2023-03-15T14:46:14;0.65;;;0.65;;
15238;SDS011;7722;53.274;9.500;2023-03-15T14:48:43;0.70;;;0.70;;
15238;SDS011;7722;53.274;9.500;2023-03-15T14:51:11;0.68;;;0.68;;
15238;SDS011;7722;53.274;9.500;2023-03-15T14:53:41;0.50;;;0.50;;
15238;SDS011;7722;53.274;9.500;2023-03-15T14:56:10;0.50;;;0.50;;
15238;SDS011;7722;53.274;9.500;2023-03-15T14:58:38;0.40;;;0.40;;
15238;SDS011;7722;53.274;9.500;2023-03-15T15:01:06;0.40;;;0.40;;
15238;SDS011;7722;53.274;9.500;2023-03-15T15:03:35;0.82;;;0.82;;
15238;SDS011;7722;53.274;9.500;2023-03-15T15:06:07;0.40;;;0.40;;
15238;SDS011;7722;53.274;9.500;2023-03-15T15:08:36;0.47;;;0.47;;
15238;SDS011;7722;53.274;9.500;2023-03-15T15:11:06;0.50;;;0.50;;
15238;SDS011;7722;53.274;9.500;2023-03-15T15:13:34;0.50;;;0.50;;
15238;SDS011;7722;53.274;9.500;2023-03-15T15:16:02;0.40;;;0.40;;
15238;SDS011;7722;53.274;9.500;2023-03-15T15:18:30;0.40;;;0.40;;
15238;SDS011;7722;53.274;9.500;2023-03-15T15:20:59;0.55;;;0.55;;
15238;SDS011;7722;53.274;9.500;2023-03-15T15:23:30;0.57;;;0.57;;
15238;SDS011;7722;53.274;9.500;2023-03-15T15:26:01;0.43;;;0.43;;
15238;SDS011;7722;53.274;9.500;2023-03-15T15:28:30;1.15;;;1.15;;
15238;SDS011;7722;53.274;9.500;2023-03-15T15:30:58;0.60;;;0.60;;
15238;SDS011;7722;53.274;9.500;2023-03-15T15:33:25;0.70;;;0.70;;
15238;SDS011;7722;53.274;9.500;2023-03-15T15:35:53;0.50;;;0.50;;
15238;SDS011;7722;53.274;9.500;2023-03-15T15:38:22;0.40;;;0.40;;
15238;SDS011;7722;53.274;9.500;2023-03-15T15:40:53;0.70;;;0.70;;